sensor_id;sensor_type;location;lat;lon;timestamp;temperature;humidity
19000;DHT22;9633;50.980;13.850;2023-03-26T00:00:31;8.70;99.90
19000;DHT22;9633;50.980;13.850;2023-03-26T00:02:04;8.70;99.90
19000;DHT22;9633;50.980;13.850;2023-03-26T00:03:38;8.70;99.90
19000;DHT22;9633;50.980;13.850;2023-03-26T00:05:11;8.80;99.90
19000;DHT22;9633;50.980;13.850;2023-03-26T00:06:45;8.80;99.90
19000;DHT22;9633;50.980;13.850;2023-03-26T00:08:19;8.80;99.90
19000;DHT22;9633;50.980;13.850;2023-03-26T00:09:52;8.80;99.90
19000;DHT22;9633;50.980;13.850;2023-03-26T00:11:27;8.80;99.90
19000;DHT22;9633;50.980;13.850;2023-03-26T00:13:01;8.80;99.90
19000;DHT22;9633;50.980;13.850;2023-03-26T00:14:35;8.80;99.90
19000;DHT22;9633;50.980;13.850;2023-03-26T00:16:09;8.80;99.90
19000;DHT22;9633;50.980;13.850;2023-03-26T00:17:42;8.80;99.90
19000;DHT22;9633;50.980;13.850;2023-03-26T00:19:17;8.80;99.90
19000;DHT22;9633;50.980;13.850;2023-03-26T00:20:50;8.80;99.90
19000;DHT22;9633;50.980;13.850;2023-03-26T00:22:22;8.90;99.90
19000;DHT22;9633;50.980;13.850;2023-03-26T00:23:56;8.90;99.90
19000;DHT22;9633;50.980;13.850;2023-03-26T00:25:30;8.90;99.90
19000;DHT22;9633;50.980;13.850;2023-03-26T00:27:05;8.90;99.90
19000;DHT22;9633;50.980;13.850;2023-03-26T00:28:40;8.90;99.90
19000;DHT22;9633;50.980;13.850;2023-03-26T00:30:15;8.90;99.90
19000;DHT22;9633;50.980;13.850;2023-03-26T00:31:48;9.00;99.90
19000;DHT22;9633;50.980;13.850;2023-03-26T00:33:21;8.90;99.90
19000;DHT22;9633;50.980;13.850;2023-03-26T00:34:54;8.90;99.90
19000;DHT22;9633;50.980;13.850;2023-03-26T00:36:27;9.00;99.90
19000;DHT22;9633;50.980;13.850;2023-03-26T00:38:00;9.00;99.90
19000;DHT22;9633;50.980;13.850;2023-03-26T00:39:33;9.00;99.90
19000;DHT22;9633;50.980;13.850;2023-03-26T00:41:09;9.00;99.90
19000;DHT22;9633;50.980;13.850;2023-03-26T00:42:49;9.00;99.90
19000;DHT22;9633;50.980;13.850;2023-03-26T00:44:22;9.00;99.90
19000;DHT22;9633;50.980;13.850;2023-03-26T00:45:56;9.00;99.90
19000;DHT22;9633;50.980;13.850;2023-03-26T00:47:29;8.90;99.90
19000;DHT22;9633;50.980;13.850;2023-03-26T00:49:03;8.90;99.90
19000;DHT22;9633;50.980;13.850;2023-03-26T00:50:36;8.90;99.90
19000;DHT22;9633;50.980;13.850;2023-03-26T00:52:09;8.90;99.90
19000;DHT22;9633;50.980;13.850;2023-03-26T00:53:44;8.80;99.90
19000;DHT22;9633;50.980;13.850;2023-03-26T00:55:16;8.80;99.90
19000;DHT22;9633;50.980;13.850;2023-03-26T00:56:49;8.70;99.90
19000;DHT22;9633;50.980;13.850;2023-03-26T00:58:26;8.70;99.90
19000;DHT22;9633;50.980;13.850;2023-03-26T01:00:00;8.60;99.90
19000;DHT22;9633;50.980;13.850;2023-03-26T01:01:47;8.60;99.90
19000;DHT22;9633;50.980;13.850;2023-03-26T01:03:21;8.60;99.90
19000;DHT22;9633;50.980;13.850;2023-03-26T01:04:59;8.60;99.90
19000;DHT22;9633;50.980;13.850;2023-03-26T01:06:37;8.60;99.90
19000;DHT22;9633;50.980;13.850;2023-03-26T01:08:17;8.50;99.90
19000;DHT22;9633;50.980;13.850;2023-03-26T01:09:51;8.50;99.90
19000;DHT22;9633;50.980;13.850;2023-03-26T01:11:28;8.50;99.90
19000;DHT22;9633;50.980;13.850;2023-03-26T01:13:02;8.60;99.90
19000;DHT22;9633;50.980;13.850;2023-03-26T01:14:36;8.60;99.90
19000;DHT22;9633;50.980;13.850;2023-03-26T01:16:17;8.60;99.90
19000;DHT22;9633;50.980;13.850;2023-03-26T01:17:52;8.60;99.90
19000;DHT22;9633;50.980;13.850;2023-03-26T01:19:32;8.70;99.90
19000;DHT22;9633;50.980;13.850;2023-03-26T01:21:09;8.70;99.90
19000;DHT22;9633;50.980;13.850;2023-03-26T01:22:48;8.70;99.90
19000;DHT22;9633;50.980;13.850;2023-03-26T01:24:24;8.70;99.90
19000;DHT22;9633;50.980;13.850;2023-03-26T01:26:01;8.70;99.90
19000;DHT22;9633;50.980;13.850;2023-03-26T01:27:40;8.70;99.90
19000;DHT22;9633;50.980;13.850;2023-03-26T01:29:20;8.70;99.90
19000;DHT22;9633;50.980;13.850;2023-03-26T01:30:57;8.80;99.90
19000;DHT22;9633;50.980;13.850;2023-03-26T01:32:51;8.80;99.90
19000;DHT22;9633;50.980;13.850;2023-03-26T01:34:38;8.70;99.90
19000;DHT22;9633;50.980;13.850;2023-03-26T01:36:16;8.80;99.90
19000;DHT22;9633;50.980;13.850;2023-03-26T01:38:01;8.80;99.90
19000;DHT22;9633;50.980;13.850;2023-03-26T01:39:47;8.80;99.90
19000;DHT22;9633;50.980;13.850;2023-03-26T01:41:28;8.80;99.90
19000;DHT22;9633;50.980;13.850;2023-03-26T01:43:05;8.80;99.90
19000;DHT22;9633;50.980;13.850;2023-03-26T01:44:44;8.80;99.90
19000;DHT22;9633;50.980;13.850;2023-03-26T01:46:21;8.90;99.90
19000;DHT22;9633;50.980;13.850;2023-03-26T01:47:54;8.90;99.90
19000;DHT22;9633;50.980;13.850;2023-03-26T01:49:28;8.90;99.90
19000;DHT22;9633;50.980;13.850;2023-03-26T01:51:01;8.90;99.90
19000;DHT22;9633;50.980;13.850;2023-03-26T01:52:34;8.90;99.90
19000;DHT22;9633;50.980;13.850;2023-03-26T01:54:11;8.90;99.90
19000;DHT22;9633;50.980;13.850;2023-03-26T01:55:53;8.90;99.90
19000;DHT22;9633;50.980;13.850;2023-03-26T01:57:33;8.80;99.90
19000;DHT22;9633;50.980;13.850;2023-03-26T01:59:17;8.80;99.90
19000;DHT22;9633;50.980;13.850;2023-03-26T02:01:01;8.70;99.90
19000;DHT22;9633;50.980;13.850;2023-03-26T02:02:44;8.80;99.90
19000;DHT22;9633;50.980;13.850;2023-03-26T02:04:25;8.70;99.90
19000;DHT22;9633;50.980;13.850;2023-03-26T02:06:03;8.80;99.90
19000;DHT22;9633;50.980;13.850;2023-03-26T02:07:42;8.70;99.90
19000;DHT22;9633;50.980;13.850;2023-03-26T02:09:20;8.60;99.90
19000;DHT22;9633;50.980;13.850;2023-03-26T02:10:58;8.60;99.90
19000;DHT22;9633;50.980;13.850;2023-03-26T02:12:35;8.50;99.90
19000;DHT22;9633;50.980;13.850;2023-03-26T02:14:08;8.50;99.90
19000;DHT22;9633;50.980;13.850;2023-03-26T02:15:54;8.40;99.90
19000;DHT22;9633;50.980;13.850;2023-03-26T02:17:28;8.40;99.90
19000;DHT22;9633;50.980;13.850;2023-03-26T02:19:03;8.40;99.90
19000;DHT22;9633;50.980;13.850;2023-03-26T02:20:36;8.40;99.90
19000;DHT22;9633;50.980;13.850;2023-03-26T02:22:10;8.30;99.90
19000;DHT22;9633;50.980;13.850;2023-03-26T02:23:49;8.30;99.90
19000;DHT22;9633;50.980;13.850;2023-03-26T02:25:28;8.30;99.90
19000;DHT22;9633;50.980;13.850;2023-03-26T02:27:04;8.30;99.90
19000;DHT22;9633;50.980;13.850;2023-03-26T02:28:38;8.30;99.90
19000;DHT22;9633;50.980;13.850;2023-03-26T02:30:14;8.30;99.90
19000;DHT22;9633;50.980;13.850;2023-03-26T02:31:50;8.30;99.90
19000;DHT22;9633;50.980;13.850;2023-03-26T02:33:23;8.40;99.90
19000;DHT22;9633;50.980;13.850;2023-03-26T02:34:56;8.40;99.90
19000;DHT22;9633;50.980;13.850;2023-03-26T02:36:30;8.40;99.90
19000;DHT22;9633;50.980;13.850;2023-03-26T02:38:06;8.50;99.90
19000;DHT22;9633;50.980;13.850;2023-03-26T02:39:41;8.50;99.90
19000;DHT22;9633;50.980;13.850;2023-03-26T02:41:24;8.60;99.90
19000;DHT22;9633;50.980;13.850;2023-03-26T02:43:05;8.60;99.90
19000;DHT22;9633;50.980;13.850;2023-03-26T02:44:40;8.60;99.90
19000;DHT22;9633;50.980;13.850;2023-03-26T02:46:22;8.60;99.90
19000;DHT22;9633;50.980;13.850;2023-03-26T02:48:09;8.50;99.90
19000;DHT22;9633;50.980;13.850;2023-03-26T02:49:55;8.40;99.90
19000;DHT22;9633;50.980;13.850;2023-03-26T02:51:48;8.40;99.90
19000;DHT22;9633;50.980;13.850;2023-03-26T02:53:29;8.50;99.90
19000;DHT22;9633;50.980;13.850;2023-03-26T02:55:20;8.50;99.90
19000;DHT22;9633;50.980;13.850;2023-03-26T02:56:56;8.40;99.90
19000;DHT22;9633;50.980;13.850;2023-03-26T02:58:57;8.30;99.90
19000;DHT22;9633;50.980;13.850;2023-03-26T03:00:30;8.30;99.90
19000;DHT22;9633;50.980;13.850;2023-03-26T03:02:27;8.20;99.90
19000;DHT22;9633;50.980;13.850;2023-03-26T03:04:08;8.10;99.90
19000;DHT22;9633;50.980;13.850;2023-03-26T03:05:41;8.10;99.90
19000;DHT22;9633;50.980;13.850;2023-03-26T03:07:37;8.10;99.90
19000;DHT22;9633;50.980;13.850;2023-03-26T03:09:11;8.10;99.90
19000;DHT22;9633;50.980;13.850;2023-03-26T03:10:43;8.10;99.90
19000;DHT22;9633;50.980;13.850;2023-03-26T03:12:27;8.10;99.90
19000;DHT22;9633;50.980;13.850;2023-03-26T03:14:02;8.00;99.90
19000;DHT22;9633;50.980;13.850;2023-03-26T03:15:36;8.00;99.90
19000;DHT22;9633;50.980;13.850;2023-03-26T03:17:10;8.00;99.90
19000;DHT22;9633;50.980;13.850;2023-03-26T03:18:43;8.00;99.90
19000;DHT22;9633;50.980;13.850;2023-03-26T03:20:18;8.00;99.90
19000;DHT22;9633;50.980;13.850;2023-03-26T03:21:52;8.00;99.90
19000;DHT22;9633;50.980;13.850;2023-03-26T03:23:26;8.00;99.90
19000;DHT22;9633;50.980;13.850;2023-03-26T03:25:09;8.10;99.90
19000;DHT22;9633;50.980;13.850;2023-03-26T03:26:45;8.10;99.90
19000;DHT22;9633;50.980;13.850;2023-03-26T03:28:38;8.00;99.90
19000;DHT22;9633;50.980;13.850;2023-03-26T03:30:13;7.90;99.90
19000;DHT22;9633;50.980;13.850;2023-03-26T03:31:49;7.90;99.90
19000;DHT22;9633;50.980;13.850;2023-03-26T03:33:47;7.90;99.90
19000;DHT22;9633;50.980;13.850;2023-03-26T03:35:20;7.80;99.90
19000;DHT22;9633;50.980;13.850;2023-03-26T03:36:58;7.80;99.90
19000;DHT22;9633;50.980;13.850;2023-03-26T03:38:40;7.70;99.90
19000;DHT22;9633;50.980;13.850;2023-03-26T03:40:16;7.70;99.90
19000;DHT22;9633;50.980;13.850;2023-03-26T03:41:50;7.70;99.90
19000;DHT22;9633;50.980;13.850;2023-03-26T03:43:23;7.70;99.90
19000;DHT22;9633;50.980;13.850;2023-03-26T03:45:09;7.70;99.90
19000;DHT22;9633;50.980;13.850;2023-03-26T03:47:07;7.70;99.90
19000;DHT22;9633;50.980;13.850;2023-03-26T03:48:44;7.80;99.90
19000;DHT22;9633;50.980;13.850;2023-03-26T03:50:31;7.90;99.90
19000;DHT22;9633;50.980;13.850;2023-03-26T03:52:41;7.90;99.90
19000;DHT22;9633;50.980;13.850;2023-03-26T03:54:16;7.90;99.90
19000;DHT22;9633;50.980;13.850;2023-03-26T03:55:49;7.90;99.90
19000;DHT22;9633;50.980;13.850;2023-03-26T03:57:27;7.90;99.90
19000;DHT22;9633;50.980;13.850;2023-03-26T03:59:05;7.90;99.90
19000;DHT22;9633;50.980;13.850;2023-03-26T04:00:40;7.90;99.90
19000;DHT22;9633;50.980;13.850;2023-03-26T04:02:37;7.90;99.90
19000;DHT22;9633;50.980;13.850;2023-03-26T04:04:14;7.80;99.90
19000;DHT22;9633;50.980;13.850;2023-03-26T04:05:56;7.80;99.90
19000;DHT22;9633;50.980;13.850;2023-03-26T04:07:32;7.80;99.90
19000;DHT22;9633;50.980;13.850;2023-03-26T04:09:08;7.70;99.90
19000;DHT22;9633;50.980;13.850;2023-03-26T04:10:45;7.70;99.90
19000;DHT22;9633;50.980;13.850;2023-03-26T04:12:28;7.70;99.90
19000;DHT22;9633;50.980;13.850;2023-03-26T04:14:05;7.70;99.90
19000;DHT22;9633;50.980;13.850;2023-03-26T04:15:59;7.70;99.90
19000;DHT22;9633;50.980;13.850;2023-03-26T04:17:33;7.70;99.90
19000;DHT22;9633;50.980;13.850;2023-03-26T04:19:16;7.70;99.90
19000;DHT22;9633;50.980;13.850;2023-03-26T04:20:49;7.70;99.90
19000;DHT22;9633;50.980;13.850;2023-03-26T04:22:27;7.70;99.90
19000;DHT22;9633;50.980;13.850;2023-03-26T04:24:08;7.70;99.90
19000;DHT22;9633;50.980;13.850;2023-03-26T04:26:15;7.70;99.90
19000;DHT22;9633;50.980;13.850;2023-03-26T04:28:06;7.70;99.90
19000;DHT22;9633;50.980;13.850;2023-03-26T04:30:19;7.70;99.90
19000;DHT22;9633;50.980;13.850;2023-03-26T04:31:59;7.90;99.90
19000;DHT22;9633;50.980;13.850;2023-03-26T04:33:37;7.90;99.90
19000;DHT22;9633;50.980;13.850;2023-03-26T04:35:12;7.90;99.90
19000;DHT22;9633;50.980;13.850;2023-03-26T04:36:52;8.00;99.90
19000;DHT22;9633;50.980;13.850;2023-03-26T04:38:30;8.00;99.90
19000;DHT22;9633;50.980;13.850;2023-03-26T04:40:10;8.00;99.90
19000;DHT22;9633;50.980;13.850;2023-03-26T04:41:52;8.00;99.90
19000;DHT22;9633;50.980;13.850;2023-03-26T04:43:25;8.00;99.90
19000;DHT22;9633;50.980;13.850;2023-03-26T04:45:17;8.10;99.90
19000;DHT22;9633;50.980;13.850;2023-03-26T04:46:59;8.10;99.90
19000;DHT22;9633;50.980;13.850;2023-03-26T04:48:38;8.20;99.90
19000;DHT22;9633;50.980;13.850;2023-03-26T04:50:14;8.20;99.90
19000;DHT22;9633;50.980;13.850;2023-03-26T04:51:48;8.20;99.90
19000;DHT22;9633;50.980;13.850;2023-03-26T04:53:58;8.20;99.90
19000;DHT22;9633;50.980;13.850;2023-03-26T04:55:45;8.20;99.90
19000;DHT22;9633;50.980;13.850;2023-03-26T04:57:31;8.10;99.90
19000;DHT22;9633;50.980;13.850;2023-03-26T04:59:21;8.20;99.90
19000;DHT22;9633;50.980;13.850;2023-03-26T05:00:58;8.10;99.90
19000;DHT22;9633;50.980;13.850;2023-03-26T05:02:44;8.10;99.90
19000;DHT22;9633;50.980;13.850;2023-03-26T05:04:21;8.10;99.90
19000;DHT22;9633;50.980;13.850;2023-03-26T05:05:59;8.20;99.90
19000;DHT22;9633;50.980;13.850;2023-03-26T05:07:32;8.10;99.90
19000;DHT22;9633;50.980;13.850;2023-03-26T05:09:06;8.10;99.90
19000;DHT22;9633;50.980;13.850;2023-03-26T05:11:01;8.10;99.90
19000;DHT22;9633;50.980;13.850;2023-03-26T05:12:40;8.20;99.90
19000;DHT22;9633;50.980;13.850;2023-03-26T05:14:17;8.20;99.90
19000;DHT22;9633;50.980;13.850;2023-03-26T05:15:52;8.30;99.90
19000;DHT22;9633;50.980;13.850;2023-03-26T05:17:37;8.20;99.90
19000;DHT22;9633;50.980;13.850;2023-03-26T05:19:19;8.30;99.90
19000;DHT22;9633;50.980;13.850;2023-03-26T05:20:52;8.30;99.90
19000;DHT22;9633;50.980;13.850;2023-03-26T05:22:28;8.20;99.90
19000;DHT22;9633;50.980;13.850;2023-03-26T05:24:20;8.20;99.90
19000;DHT22;9633;50.980;13.850;2023-03-26T05:25:55;8.20;99.90
19000;DHT22;9633;50.980;13.850;2023-03-26T05:27:29;8.20;99.90
19000;DHT22;9633;50.980;13.850;2023-03-26T05:29:02;8.10;99.90
19000;DHT22;9633;50.980;13.850;2023-03-26T05:30:43;8.10;99.90
19000;DHT22;9633;50.980;13.850;2023-03-26T05:32:17;8.10;99.90
19000;DHT22;9633;50.980;13.850;2023-03-26T05:33:51;8.10;99.90
19000;DHT22;9633;50.980;13.850;2023-03-26T05:35:25;8.10;99.90
19000;DHT22;9633;50.980;13.850;2023-03-26T05:36:59;8.20;99.90
19000;DHT22;9633;50.980;13.850;2023-03-26T05:39:01;8.20;99.90
19000;DHT22;9633;50.980;13.850;2023-03-26T05:41:03;8.20;99.90
19000;DHT22;9633;50.980;13.850;2023-03-26T05:42:39;8.20;99.90
19000;DHT22;9633;50.980;13.850;2023-03-26T05:44:35;8.10;99.90
19000;DHT22;9633;50.980;13.850;2023-03-26T05:46:18;8.20;99.90
19000;DHT22;9633;50.980;13.850;2023-03-26T05:47:54;8.10;99.90
19000;DHT22;9633;50.980;13.850;2023-03-26T05:49:29;8.10;99.90
19000;DHT22;9633;50.980;13.850;2023-03-26T05:51:02;8.20;99.90
19000;DHT22;9633;50.980;13.850;2023-03-26T05:52:37;8.20;99.90
19000;DHT22;9633;50.980;13.850;2023-03-26T05:54:30;8.20;99.90
19000;DHT22;9633;50.980;13.850;2023-03-26T05:56:22;8.20;99.90
19000;DHT22;9633;50.980;13.850;2023-03-26T05:58:28;8.30;99.90
19000;DHT22;9633;50.980;13.850;2023-03-26T06:00:20;8.30;99.90
19000;DHT22;9633;50.980;13.850;2023-03-26T06:01:57;8.20;99.90
19000;DHT22;9633;50.980;13.850;2023-03-26T06:03:56;8.20;99.90
19000;DHT22;9633;50.980;13.850;2023-03-26T06:05:34;8.30;99.90
19000;DHT22;9633;50.980;13.850;2023-03-26T06:07:16;8.30;99.90
19000;DHT22;9633;50.980;13.850;2023-03-26T06:08:56;8.30;99.90
19000;DHT22;9633;50.980;13.850;2023-03-26T06:10:38;8.40;99.90
19000;DHT22;9633;50.980;13.850;2023-03-26T06:12:12;8.40;99.90
19000;DHT22;9633;50.980;13.850;2023-03-26T06:13:46;8.40;99.90
19000;DHT22;9633;50.980;13.850;2023-03-26T06:15:18;8.50;99.90
19000;DHT22;9633;50.980;13.850;2023-03-26T06:16:58;8.50;99.90
19000;DHT22;9633;50.980;13.850;2023-03-26T06:18:31;8.60;99.90
19000;DHT22;9633;50.980;13.850;2023-03-26T06:20:23;8.70;99.90
19000;DHT22;9633;50.980;13.850;2023-03-26T06:21:57;8.70;99.90
19000;DHT22;9633;50.980;13.850;2023-03-26T06:23:35;8.80;99.90
19000;DHT22;9633;50.980;13.850;2023-03-26T06:25:16;8.80;99.90
19000;DHT22;9633;50.980;13.850;2023-03-26T06:27:03;8.90;99.90
19000;DHT22;9633;50.980;13.850;2023-03-26T06:28:54;8.90;99.90
19000;DHT22;9633;50.980;13.850;2023-03-26T06:30:47;8.90;99.90
19000;DHT22;9633;50.980;13.850;2023-03-26T06:32:33;9.00;99.90
19000;DHT22;9633;50.980;13.850;2023-03-26T06:34:13;9.00;99.90
19000;DHT22;9633;50.980;13.850;2023-03-26T06:35:46;9.10;99.90
19000;DHT22;9633;50.980;13.850;2023-03-26T06:37:21;9.10;99.90
19000;DHT22;9633;50.980;13.850;2023-03-26T06:39:00;9.20;99.90
19000;DHT22;9633;50.980;13.850;2023-03-26T06:40:40;9.20;99.90
19000;DHT22;9633;50.980;13.850;2023-03-26T06:42:30;9.30;99.90
19000;DHT22;9633;50.980;13.850;2023-03-26T06:44:45;9.40;99.90
19000;DHT22;9633;50.980;13.850;2023-03-26T06:46:27;9.40;99.90
19000;DHT22;9633;50.980;13.850;2023-03-26T06:48:23;9.30;99.90
19000;DHT22;9633;50.980;13.850;2023-03-26T06:50:19;9.30;99.90
19000;DHT22;9633;50.980;13.850;2023-03-26T06:52:24;9.40;99.90
19000;DHT22;9633;50.980;13.850;2023-03-26T06:54:15;9.40;99.90
19000;DHT22;9633;50.980;13.850;2023-03-26T06:55:51;9.40;99.90
19000;DHT22;9633;50.980;13.850;2023-03-26T06:57:47;9.50;99.90
19000;DHT22;9633;50.980;13.850;2023-03-26T06:59:46;9.60;99.90
19000;DHT22;9633;50.980;13.850;2023-03-26T07:01:38;9.70;99.90
19000;DHT22;9633;50.980;13.850;2023-03-26T07:03:29;9.70;99.90
19000;DHT22;9633;50.980;13.850;2023-03-26T07:05:21;9.70;99.90
19000;DHT22;9633;50.980;13.850;2023-03-26T07:07:13;9.60;99.90
19000;DHT22;9633;50.980;13.850;2023-03-26T07:09:05;9.70;99.90
19000;DHT22;9633;50.980;13.850;2023-03-26T07:10:56;9.60;99.90
19000;DHT22;9633;50.980;13.850;2023-03-26T07:12:29;9.70;99.90
19000;DHT22;9633;50.980;13.850;2023-03-26T07:14:30;9.80;99.90
19000;DHT22;9633;50.980;13.850;2023-03-26T07:16:25;9.90;99.90
19000;DHT22;9633;50.980;13.850;2023-03-26T07:18:12;9.90;99.90
19000;DHT22;9633;50.980;13.850;2023-03-26T07:19:47;9.90;99.90
19000;DHT22;9633;50.980;13.850;2023-03-26T07:21:21;9.70;99.90
19000;DHT22;9633;50.980;13.850;2023-03-26T07:22:55;9.60;99.90
19000;DHT22;9633;50.980;13.850;2023-03-26T07:24:43;9.60;99.90
19000;DHT22;9633;50.980;13.850;2023-03-26T07:26:43;9.70;99.90
19000;DHT22;9633;50.980;13.850;2023-03-26T07:28:24;9.70;99.90
19000;DHT22;9633;50.980;13.850;2023-03-26T07:30:14;9.70;99.90
19000;DHT22;9633;50.980;13.850;2023-03-26T07:32:19;9.80;99.90
19000;DHT22;9633;50.980;13.850;2023-03-26T07:34:25;9.90;99.90
19000;DHT22;9633;50.980;13.850;2023-03-26T07:36:23;9.90;99.90
19000;DHT22;9633;50.980;13.850;2023-03-26T07:38:27;10.10;99.90
19000;DHT22;9633;50.980;13.850;2023-03-26T07:40:27;10.10;99.90
19000;DHT22;9633;50.980;13.850;2023-03-26T07:42:37;9.90;99.90
19000;DHT22;9633;50.980;13.850;2023-03-26T07:44:42;10.00;99.90
19000;DHT22;9633;50.980;13.850;2023-03-26T07:46:26;9.80;99.90
19000;DHT22;9633;50.980;13.850;2023-03-26T07:48:21;9.90;99.90
19000;DHT22;9633;50.980;13.850;2023-03-26T07:50:22;9.90;99.90
19000;DHT22;9633;50.980;13.850;2023-03-26T07:52:09;10.00;99.90
19000;DHT22;9633;50.980;13.850;2023-03-26T07:54:12;9.80;99.90
19000;DHT22;9633;50.980;13.850;2023-03-26T07:56:28;9.90;99.90
19000;DHT22;9633;50.980;13.850;2023-03-26T07:58:34;10.00;99.90
19000;DHT22;9633;50.980;13.850;2023-03-26T08:00:35;10.10;99.90
19000;DHT22;9633;50.980;13.850;2023-03-26T08:02:33;10.20;99.90
19000;DHT22;9633;50.980;13.850;2023-03-26T08:04:50;10.10;99.90
19000;DHT22;9633;50.980;13.850;2023-03-26T08:07:00;9.90;99.90
19000;DHT22;9633;50.980;13.850;2023-03-26T08:08:57;9.90;99.90
19000;DHT22;9633;50.980;13.850;2023-03-26T08:11:22;10.00;99.90
19000;DHT22;9633;50.980;13.850;2023-03-26T08:13:14;10.00;99.90
19000;DHT22;9633;50.980;13.850;2023-03-26T08:14:55;10.00;99.90
19000;DHT22;9633;50.980;13.850;2023-03-26T08:16:36;10.00;99.90
19000;DHT22;9633;50.980;13.850;2023-03-26T08:18:23;9.90;99.90
19000;DHT22;9633;50.980;13.850;2023-03-26T08:20:06;10.10;99.90
19000;DHT22;9633;50.980;13.850;2023-03-26T08:21:47;10.20;99.90
19000;DHT22;9633;50.980;13.850;2023-03-26T08:23:26;10.30;99.90
19000;DHT22;9633;50.980;13.850;2023-03-26T08:25:14;10.40;99.90
19000;DHT22;9633;50.980;13.850;2023-03-26T08:26:54;10.40;99.90
19000;DHT22;9633;50.980;13.850;2023-03-26T08:28:40;10.40;99.90
19000;DHT22;9633;50.980;13.850;2023-03-26T08:30:20;10.40;99.90
19000;DHT22;9633;50.980;13.850;2023-03-26T08:31:54;10.50;99.90
19000;DHT22;9633;50.980;13.850;2023-03-26T08:33:29;10.60;99.90
19000;DHT22;9633;50.980;13.850;2023-03-26T08:35:03;10.70;99.90
19000;DHT22;9633;50.980;13.850;2023-03-26T08:36:37;10.70;99.90
19000;DHT22;9633;50.980;13.850;2023-03-26T08:38:10;10.90;99.90
19000;DHT22;9633;50.980;13.850;2023-03-26T08:39:44;11.00;99.90
19000;DHT22;9633;50.980;13.850;2023-03-26T08:43:52;11.00;99.90
19000;DHT22;9633;50.980;13.850;2023-03-26T08:54:46;11.10;99.90
19000;DHT22;9633;50.980;13.850;2023-03-26T08:56:25;11.50;99.90
19000;DHT22;9633;50.980;13.850;2023-03-26T09:00:36;11.60;99.90
19000;DHT22;9633;50.980;13.850;2023-03-26T09:02:36;11.40;99.90
19000;DHT22;9633;50.980;13.850;2023-03-26T09:04:34;11.40;99.90
19000;DHT22;9633;50.980;13.850;2023-03-26T09:06:26;11.30;99.90
19000;DHT22;9633;50.980;13.850;2023-03-26T09:08:42;11.30;99.90
19000;DHT22;9633;50.980;13.850;2023-03-26T09:10:45;11.20;99.90
19000;DHT22;9633;50.980;13.850;2023-03-26T09:16:55;11.30;99.90
19000;DHT22;9633;50.980;13.850;2023-03-26T09:19:13;11.30;99.90
19000;DHT22;9633;50.980;13.850;2023-03-26T09:25:20;12.80;99.90
19000;DHT22;9633;50.980;13.850;2023-03-26T09:27:06;13.30;99.90
19000;DHT22;9633;50.980;13.850;2023-03-26T09:29:05;13.90;99.90
19000;DHT22;9633;50.980;13.850;2023-03-26T09:31:14;14.60;99.90
19000;DHT22;9633;50.980;13.850;2023-03-26T09:33:13;14.20;99.90
19000;DHT22;9633;50.980;13.850;2023-03-26T09:35:02;13.80;99.90
19000;DHT22;9633;50.980;13.850;2023-03-26T09:36:53;13.50;99.90
19000;DHT22;9633;50.980;13.850;2023-03-26T09:38:39;13.50;99.90
19000;DHT22;9633;50.980;13.850;2023-03-26T09:40:18;13.60;99.90
19000;DHT22;9633;50.980;13.850;2023-03-26T09:42:03;13.40;99.90
19000;DHT22;9633;50.980;13.850;2023-03-26T09:45:54;12.70;99.90
19000;DHT22;9633;50.980;13.850;2023-03-26T09:47:46;12.60;99.90
19000;DHT22;9633;50.980;13.850;2023-03-26T09:49:40;12.60;99.90
19000;DHT22;9633;50.980;13.850;2023-03-26T09:53:54;13.00;99.90
19000;DHT22;9633;50.980;13.850;2023-03-26T09:55:52;12.90;99.90
19000;DHT22;9633;50.980;13.850;2023-03-26T09:57:39;13.60;99.90
19000;DHT22;9633;50.980;13.850;2023-03-26T10:01:29;14.10;99.90
19000;DHT22;9633;50.980;13.850;2023-03-26T10:03:38;14.00;99.90
19000;DHT22;9633;50.980;13.850;2023-03-26T10:05:26;13.70;99.90
19000;DHT22;9633;50.980;13.850;2023-03-26T10:07:11;13.70;99.90
19000;DHT22;9633;50.980;13.850;2023-03-26T10:09:12;13.40;99.90
19000;DHT22;9633;50.980;13.850;2023-03-26T10:10:53;13.80;99.90
19000;DHT22;9633;50.980;13.850;2023-03-26T10:12:32;14.50;99.90
19000;DHT22;9633;50.980;13.850;2023-03-26T10:14:18;16.30;99.90
19000;DHT22;9633;50.980;13.850;2023-03-26T10:16:04;15.50;99.60
19000;DHT22;9633;50.980;13.850;2023-03-26T10:17:49;15.80;98.00
19000;DHT22;9633;50.980;13.850;2023-03-26T10:19:49;16.70;97.20
19000;DHT22;9633;50.980;13.850;2023-03-26T10:21:32;16.80;97.00
19000;DHT22;9633;50.980;13.850;2023-03-26T10:23:18;13.60;98.10
19000;DHT22;9633;50.980;13.850;2023-03-26T10:25:15;13.80;99.90
19000;DHT22;9633;50.980;13.850;2023-03-26T10:26:57;13.50;99.90
19000;DHT22;9633;50.980;13.850;2023-03-26T10:33:12;12.80;98.40
19000;DHT22;9633;50.980;13.850;2023-03-26T10:34:54;13.20;99.90
19000;DHT22;9633;50.980;13.850;2023-03-26T10:36:31;13.00;99.90
19000;DHT22;9633;50.980;13.850;2023-03-26T10:38:14;13.00;99.90
19000;DHT22;9633;50.980;13.850;2023-03-26T10:40:08;12.80;99.90
19000;DHT22;9633;50.980;13.850;2023-03-26T10:41:53;12.70;99.90
19000;DHT22;9633;50.980;13.850;2023-03-26T10:43:48;12.30;99.90
19000;DHT22;9633;50.980;13.850;2023-03-26T10:45:48;12.00;99.90
19000;DHT22;9633;50.980;13.850;2023-03-26T10:47:40;12.10;99.90
19000;DHT22;9633;50.980;13.850;2023-03-26T10:49:36;12.10;99.90
19000;DHT22;9633;50.980;13.850;2023-03-26T10:51:32;12.30;99.90
19000;DHT22;9633;50.980;13.850;2023-03-26T10:53:12;12.70;99.90
19000;DHT22;9633;50.980;13.850;2023-03-26T10:54:55;12.70;99.90
19000;DHT22;9633;50.980;13.850;2023-03-26T10:56:32;12.80;99.90
19000;DHT22;9633;50.980;13.850;2023-03-26T10:58:13;13.30;99.90
19000;DHT22;9633;50.980;13.850;2023-03-26T10:59:50;13.80;99.90
19000;DHT22;9633;50.980;13.850;2023-03-26T11:01:32;13.90;99.90
19000;DHT22;9633;50.980;13.850;2023-03-26T11:05:43;14.40;99.90
19000;DHT22;9633;50.980;13.850;2023-03-26T11:07:21;14.10;99.90
19000;DHT22;9633;50.980;13.850;2023-03-26T11:09:02;14.60;99.90
19000;DHT22;9633;50.980;13.850;2023-03-26T11:10:47;15.60;99.90
19000;DHT22;9633;50.980;13.850;2023-03-26T11:12:28;15.80;98.20
19000;DHT22;9633;50.980;13.850;2023-03-26T11:14:09;15.40;99.80
19000;DHT22;9633;50.980;13.850;2023-03-26T11:16:03;16.70;99.50
19000;DHT22;9633;50.980;13.850;2023-03-26T11:17:44;18.00;97.00
19000;DHT22;9633;50.980;13.850;2023-03-26T11:19:24;16.20;97.50
19000;DHT22;9633;50.980;13.850;2023-03-26T11:21:04;14.10;99.60
19000;DHT22;9633;50.980;13.850;2023-03-26T11:23:07;14.20;99.90
19000;DHT22;9633;50.980;13.850;2023-03-26T11:25:08;14.80;99.40
19000;DHT22;9633;50.980;13.850;2023-03-26T11:26:52;15.30;99.10
19000;DHT22;9633;50.980;13.850;2023-03-26T11:30:57;15.50;97.70
19000;DHT22;9633;50.980;13.850;2023-03-26T11:32:38;15.00;96.60
19000;DHT22;9633;50.980;13.850;2023-03-26T11:34:15;14.60;99.20
19000;DHT22;9633;50.980;13.850;2023-03-26T11:35:50;14.60;98.40
19000;DHT22;9633;50.980;13.850;2023-03-26T11:37:30;14.20;97.50
19000;DHT22;9633;50.980;13.850;2023-03-26T11:39:08;14.30;97.80